sensor_id;sensor_type;location;lat;lon;timestamp;P1;durP1;ratioP1;P2;durP2;ratioP2
68234;SDS011;55052;52.056;5.296;2023-02-15T00:01:56;25.90;;;14.98;;
68234;SDS011;55052;52.056;5.296;2023-02-15T00:04:24;26.98;;;15.80;;
68234;SDS011;55052;52.056;5.296;2023-02-15T00:07:12;30.35;;;17.55;;
68234;SDS011;55052;52.056;5.296;2023-02-15T00:09:43;30.08;;;16.70;;
68234;SDS011;55052;52.056;5.296;2023-02-15T00:12:12;29.05;;;16.98;;
68234;SDS011;55052;52.056;5.296;2023-02-15T00:14:38;29.45;;;16.40;;
68234;SDS011;55052;52.056;5.296;2023-02-15T00:17:05;30.55;;;16.25;;
68234;SDS011;55052;52.056;5.296;2023-02-15T00:19:32;30.48;;;16.95;;
68234;SDS011;55052;52.056;5.296;2023-02-15T00:21:59;30.08;;;16.90;;
68234;SDS011;55052;52.056;5.296;2023-02-15T00:24:26;26.55;;;15.90;;
68234;SDS011;55052;52.056;5.296;2023-02-15T00:26:53;28.27;;;17.08;;
68234;SDS011;55052;52.056;5.296;2023-02-15T00:29:20;30.02;;;16.60;;
68234;SDS011;55052;52.056;5.296;2023-02-15T00:31:47;26.52;;;16.38;;
68234;SDS011;55052;52.056;5.296;2023-02-15T00:34:24;29.20;;;16.38;;
68234;SDS011;55052;52.056;5.296;2023-02-15T00:36:53;30.13;;;14.73;;
68234;SDS011;55052;52.056;5.296;2023-02-15T00:39:20;28.98;;;16.25;;
68234;SDS011;55052;52.056;5.296;2023-02-15T00:41:47;29.25;;;16.30;;
68234;SDS011;55052;52.056;5.296;2023-02-15T00:44:14;28.27;;;15.43;;
68234;SDS011;55052;52.056;5.296;2023-02-15T00:46:41;27.85;;;16.13;;
68234;SDS011;55052;52.056;5.296;2023-02-15T00:49:08;27.65;;;16.25;;
68234;SDS011;55052;52.056;5.296;2023-02-15T00:51:36;29.20;;;16.88;;
68234;SDS011;55052;52.056;5.296;2023-02-15T00:54:03;25.80;;;15.85;;
68234;SDS011;55052;52.056;5.296;2023-02-15T00:56:29;28.80;;;15.68;;
68234;SDS011;55052;52.056;5.296;2023-02-15T00:58:56;29.73;;;16.85;;
68234;SDS011;55052;52.056;5.296;2023-02-15T01:01:23;28.85;;;16.25;;
68234;SDS011;55052;52.056;5.296;2023-02-15T01:03:50;28.85;;;16.33;;
68234;SDS011;55052;52.056;5.296;2023-02-15T01:06:17;28.70;;;15.95;;
68234;SDS011;55052;52.056;5.296;2023-02-15T01:08:45;29.08;;;15.98;;
68234;SDS011;55052;52.056;5.296;2023-02-15T01:11:13;28.35;;;15.80;;
68234;SDS011;55052;52.056;5.296;2023-02-15T01:13:51;30.50;;;17.25;;
68234;SDS011;55052;52.056;5.296;2023-02-15T01:16:19;28.45;;;15.50;;
68234;SDS011;55052;52.056;5.296;2023-02-15T01:18:47;27.75;;;16.50;;
68234;SDS011;55052;52.056;5.296;2023-02-15T01:21:18;27.65;;;16.13;;
68234;SDS011;55052;52.056;5.296;2023-02-15T01:23:46;28.65;;;17.08;;
68234;SDS011;55052;52.056;5.296;2023-02-15T01:26:13;27.58;;;16.38;;
68234;SDS011;55052;52.056;5.296;2023-02-15T01:28:41;29.02;;;16.48;;
68234;SDS011;55052;52.056;5.296;2023-02-15T01:31:08;26.60;;;14.82;;
68234;SDS011;55052;52.056;5.296;2023-02-15T01:33:37;28.27;;;16.03;;
68234;SDS011;55052;52.056;5.296;2023-02-15T01:36:05;29.70;;;16.20;;
68234;SDS011;55052;52.056;5.296;2023-02-15T01:38:32;32.83;;;16.58;;
68234;SDS011;55052;52.056;5.296;2023-02-15T01:41:00;28.55;;;16.05;;
68234;SDS011;55052;52.056;5.296;2023-02-15T01:43:47;31.73;;;16.00;;
68234;SDS011;55052;52.056;5.296;2023-02-15T01:46:16;27.52;;;15.55;;
68234;SDS011;55052;52.056;5.296;2023-02-15T01:48:47;26.05;;;15.23;;
68234;SDS011;55052;52.056;5.296;2023-02-15T01:51:17;30.40;;;16.40;;
68234;SDS011;55052;52.056;5.296;2023-02-15T01:53:51;28.60;;;16.05;;
68234;SDS011;55052;52.056;5.296;2023-02-15T01:56:25;26.80;;;15.93;;
68234;SDS011;55052;52.056;5.296;2023-02-15T01:58:58;28.50;;;15.35;;
68234;SDS011;55052;52.056;5.296;2023-02-15T02:04:09;26.55;;;15.20;;
68234;SDS011;55052;52.056;5.296;2023-02-15T02:06:44;28.88;;;15.00;;
68234;SDS011;55052;52.056;5.296;2023-02-15T02:09:14;26.17;;;15.95;;
68234;SDS011;55052;52.056;5.296;2023-02-15T02:11:41;33.50;;;16.85;;
68234;SDS011;55052;52.056;5.296;2023-02-15T02:14:11;30.20;;;15.75;;
68234;SDS011;55052;52.056;5.296;2023-02-15T02:19:26;30.20;;;16.43;;
68234;SDS011;55052;52.056;5.296;2023-02-15T02:34:12;30.23;;;16.58;;
68234;SDS011;55052;52.056;5.296;2023-02-15T02:42:44;33.17;;;17.63;;
68234;SDS011;55052;52.056;5.296;2023-02-15T02:46:13;31.77;;;17.30;;
68234;SDS011;55052;52.056;5.296;2023-02-15T02:48:38;30.48;;;17.30;;
68234;SDS011;55052;52.056;5.296;2023-02-15T02:51:05;30.92;;;17.30;;
68234;SDS011;55052;52.056;5.296;2023-02-15T02:53:32;30.20;;;17.23;;
68234;SDS011;55052;52.056;5.296;2023-02-15T02:56:06;29.70;;;16.23;;
68234;SDS011;55052;52.056;5.296;2023-02-15T02:58:44;34.35;;;18.15;;
68234;SDS011;55052;52.056;5.296;2023-02-15T03:01:39;30.25;;;16.45;;
68234;SDS011;55052;52.056;5.296;2023-02-15T03:04:18;29.55;;;15.68;;
68234;SDS011;55052;52.056;5.296;2023-02-15T03:06:54;31.00;;;16.95;;
68234;SDS011;55052;52.056;5.296;2023-02-15T03:09:27;28.63;;;16.25;;
68234;SDS011;55052;52.056;5.296;2023-02-15T03:12:12;29.75;;;17.08;;
68234;SDS011;55052;52.056;5.296;2023-02-15T03:14:42;30.17;;;16.63;;
68234;SDS011;55052;52.056;5.296;2023-02-15T03:17:12;28.65;;;15.25;;
68234;SDS011;55052;52.056;5.296;2023-02-15T03:19:41;29.00;;;16.38;;
68234;SDS011;55052;52.056;5.296;2023-02-15T03:27:37;25.70;;;15.48;;
68234;SDS011;55052;52.056;5.296;2023-02-15T03:30:07;31.42;;;16.27;;
68234;SDS011;55052;52.056;5.296;2023-02-15T03:32:36;31.00;;;16.60;;
68234;SDS011;55052;52.056;5.296;2023-02-15T03:35:04;28.58;;;16.98;;
68234;SDS011;55052;52.056;5.296;2023-02-15T03:46:24;30.45;;;16.17;;
68234;SDS011;55052;52.056;5.296;2023-02-15T03:48:55;32.38;;;17.02;;
68234;SDS011;55052;52.056;5.296;2023-02-15T03:51:28;30.25;;;16.70;;
68234;SDS011;55052;52.056;5.296;2023-02-15T03:54:02;31.90;;;16.45;;
68234;SDS011;55052;52.056;5.296;2023-02-15T03:56:33;29.95;;;16.05;;
68234;SDS011;55052;52.056;5.296;2023-02-15T03:59:07;27.42;;;15.68;;
68234;SDS011;55052;52.056;5.296;2023-02-15T04:02:11;30.55;;;15.45;;
68234;SDS011;55052;52.056;5.296;2023-02-15T04:04:47;31.33;;;16.42;;
68234;SDS011;55052;52.056;5.296;2023-02-15T04:07:14;26.85;;;16.05;;
68234;SDS011;55052;52.056;5.296;2023-02-15T04:09:41;31.70;;;17.17;;
68234;SDS011;55052;52.056;5.296;2023-02-15T04:12:26;28.10;;;16.95;;
68234;SDS011;55052;52.056;5.296;2023-02-15T04:14:53;28.98;;;17.20;;
68234;SDS011;55052;52.056;5.296;2023-02-15T04:17:38;29.33;;;16.42;;
68234;SDS011;55052;52.056;5.296;2023-02-15T04:20:05;28.15;;;15.30;;
68234;SDS011;55052;52.056;5.296;2023-02-15T04:22:51;26.90;;;15.65;;
68234;SDS011;55052;52.056;5.296;2023-02-15T04:25:36;31.88;;;16.73;;
68234;SDS011;55052;52.056;5.296;2023-02-15T04:28:03;26.60;;;15.65;;
68234;SDS011;55052;52.056;5.296;2023-02-15T04:30:30;25.52;;;15.80;;
68234;SDS011;55052;52.056;5.296;2023-02-15T04:32:57;26.15;;;15.73;;
68234;SDS011;55052;52.056;5.296;2023-02-15T04:35:23;26.90;;;15.77;;
68234;SDS011;55052;52.056;5.296;2023-02-15T04:37:50;26.63;;;15.57;;
68234;SDS011;55052;52.056;5.296;2023-02-15T04:40:17;31.55;;;16.30;;
68234;SDS011;55052;52.056;5.296;2023-02-15T04:42:46;29.40;;;15.88;;
68234;SDS011;55052;52.056;5.296;2023-02-15T04:45:15;27.50;;;15.85;;
68234;SDS011;55052;52.056;5.296;2023-02-15T04:47:42;27.95;;;16.10;;
68234;SDS011;55052;52.056;5.296;2023-02-15T04:50:09;28.30;;;16.08;;
68234;SDS011;55052;52.056;5.296;2023-02-15T04:52:36;31.13;;;16.25;;
68234;SDS011;55052;52.056;5.296;2023-02-15T04:55:03;28.70;;;16.58;;
68234;SDS011;55052;52.056;5.296;2023-02-15T04:57:29;31.17;;;16.15;;
68234;SDS011;55052;52.056;5.296;2023-02-15T04:59:56;28.27;;;15.80;;
68234;SDS011;55052;52.056;5.296;2023-02-15T05:02:25;30.02;;;15.95;;
68234;SDS011;55052;52.056;5.296;2023-02-15T05:04:52;25.85;;;15.65;;
68234;SDS011;55052;52.056;5.296;2023-02-15T05:07:18;28.55;;;15.40;;
68234;SDS011;55052;52.056;5.296;2023-02-15T05:09:46;32.28;;;15.43;;
68234;SDS011;55052;52.056;5.296;2023-02-15T05:12:13;26.15;;;14.85;;
68234;SDS011;55052;52.056;5.296;2023-02-15T05:14:40;33.38;;;17.23;;
68234;SDS011;55052;52.056;5.296;2023-02-15T05:17:06;29.50;;;16.15;;
68234;SDS011;55052;52.056;5.296;2023-02-15T05:19:33;31.35;;;15.93;;
68234;SDS011;55052;52.056;5.296;2023-02-15T05:22:00;28.63;;;15.27;;
68234;SDS011;55052;52.056;5.296;2023-02-15T05:24:27;27.88;;;15.02;;
68234;SDS011;55052;52.056;5.296;2023-02-15T05:27:12;30.02;;;16.05;;
68234;SDS011;55052;52.056;5.296;2023-02-15T05:29:57;29.58;;;16.00;;
68234;SDS011;55052;52.056;5.296;2023-02-15T05:32:24;30.23;;;15.88;;
68234;SDS011;55052;52.056;5.296;2023-02-15T05:34:51;27.67;;;14.85;;
68234;SDS011;55052;52.056;5.296;2023-02-15T05:37:18;31.48;;;15.68;;
68234;SDS011;55052;52.056;5.296;2023-02-15T05:39:45;27.48;;;15.63;;
68234;SDS011;55052;52.056;5.296;2023-02-15T05:42:11;28.55;;;15.68;;
68234;SDS011;55052;52.056;5.296;2023-02-15T05:44:38;27.13;;;16.20;;
68234;SDS011;55052;52.056;5.296;2023-02-15T05:47:05;28.05;;;15.27;;
68234;SDS011;55052;52.056;5.296;2023-02-15T05:49:33;25.58;;;15.68;;
68234;SDS011;55052;52.056;5.296;2023-02-15T05:52:00;26.80;;;15.45;;
68234;SDS011;55052;52.056;5.296;2023-02-15T05:54:27;33.45;;;16.27;;
68234;SDS011;55052;52.056;5.296;2023-02-15T05:56:54;25.70;;;14.75;;
68234;SDS011;55052;52.056;5.296;2023-02-15T05:59:21;26.08;;;16.10;;
68234;SDS011;55052;52.056;5.296;2023-02-15T06:01:48;29.75;;;15.95;;
68234;SDS011;55052;52.056;5.296;2023-02-15T06:04:15;25.20;;;14.63;;
68234;SDS011;55052;52.056;5.296;2023-02-15T06:06:42;28.73;;;14.75;;
68234;SDS011;55052;52.056;5.296;2023-02-15T06:09:10;32.10;;;15.45;;
68234;SDS011;55052;52.056;5.296;2023-02-15T06:11:38;28.13;;;15.18;;
68234;SDS011;55052;52.056;5.296;2023-02-15T06:14:05;27.25;;;15.95;;
68234;SDS011;55052;52.056;5.296;2023-02-15T06:16:32;27.02;;;15.15;;
68234;SDS011;55052;52.056;5.296;2023-02-15T06:18:59;29.02;;;15.88;;
68234;SDS011;55052;52.056;5.296;2023-02-15T06:21:27;31.15;;;16.08;;
68234;SDS011;55052;52.056;5.296;2023-02-15T06:23:55;32.22;;;16.40;;
68234;SDS011;55052;52.056;5.296;2023-02-15T06:26:22;33.08;;;14.80;;
68234;SDS011;55052;52.056;5.296;2023-02-15T06:28:48;28.33;;;16.15;;
68234;SDS011;55052;52.056;5.296;2023-02-15T06:31:15;33.35;;;16.30;;
68234;SDS011;55052;52.056;5.296;2023-02-15T06:33:42;29.42;;;17.42;;
68234;SDS011;55052;52.056;5.296;2023-02-15T06:36:09;30.90;;;16.80;;
68234;SDS011;55052;52.056;5.296;2023-02-15T06:38:36;31.67;;;16.88;;
68234;SDS011;55052;52.056;5.296;2023-02-15T06:41:03;27.10;;;16.30;;
68234;SDS011;55052;52.056;5.296;2023-02-15T06:43:29;36.15;;;16.67;;
68234;SDS011;55052;52.056;5.296;2023-02-15T06:45:56;29.17;;;16.50;;
68234;SDS011;55052;52.056;5.296;2023-02-15T06:48:23;28.00;;;16.98;;
68234;SDS011;55052;52.056;5.296;2023-02-15T06:50:50;30.25;;;15.57;;
68234;SDS011;55052;52.056;5.296;2023-02-15T06:53:17;27.95;;;15.98;;
68234;SDS011;55052;52.056;5.296;2023-02-15T06:55:43;29.48;;;16.38;;
68234;SDS011;55052;52.056;5.296;2023-02-15T06:58:10;31.17;;;16.48;;
68234;SDS011;55052;52.056;5.296;2023-02-15T07:00:37;26.77;;;16.08;;
68234;SDS011;55052;52.056;5.296;2023-02-15T07:03:03;34.90;;;18.27;;
68234;SDS011;55052;52.056;5.296;2023-02-15T07:05:32;30.80;;;16.58;;
68234;SDS011;55052;52.056;5.296;2023-02-15T07:08:00;33.78;;;16.63;;
68234;SDS011;55052;52.056;5.296;2023-02-15T07:10:27;29.05;;;16.70;;
68234;SDS011;55052;52.056;5.296;2023-02-15T07:12:54;33.00;;;16.33;;
68234;SDS011;55052;52.056;5.296;2023-02-15T07:15:21;31.85;;;17.48;;
68234;SDS011;55052;52.056;5.296;2023-02-15T07:17:48;30.65;;;16.27;;
68234;SDS011;55052;52.056;5.296;2023-02-15T07:20:17;33.50;;;18.50;;
68234;SDS011;55052;52.056;5.296;2023-02-15T07:22:45;32.28;;;17.95;;
68234;SDS011;55052;52.056;5.296;2023-02-15T07:25:12;34.88;;;17.60;;
68234;SDS011;55052;52.056;5.296;2023-02-15T07:27:39;27.90;;;16.48;;
68234;SDS011;55052;52.056;5.296;2023-02-15T07:30:07;29.42;;;17.38;;
68234;SDS011;55052;52.056;5.296;2023-02-15T07:32:36;30.67;;;18.33;;
68234;SDS011;55052;52.056;5.296;2023-02-15T07:35:03;36.53;;;18.63;;
68234;SDS011;55052;52.056;5.296;2023-02-15T07:37:29;31.25;;;17.40;;
68234;SDS011;55052;52.056;5.296;2023-02-15T07:39:56;32.50;;;17.52;;
68234;SDS011;55052;52.056;5.296;2023-02-15T07:42:23;34.45;;;17.60;;
68234;SDS011;55052;52.056;5.296;2023-02-15T07:44:50;32.88;;;18.13;;
68234;SDS011;55052;52.056;5.296;2023-02-15T07:47:16;32.83;;;18.17;;
68234;SDS011;55052;52.056;5.296;2023-02-15T07:49:44;34.30;;;17.80;;
68234;SDS011;55052;52.056;5.296;2023-02-15T07:52:10;38.42;;;18.40;;
68234;SDS011;55052;52.056;5.296;2023-02-15T07:54:37;35.13;;;18.30;;
68234;SDS011;55052;52.056;5.296;2023-02-15T07:57:04;34.47;;;18.65;;
68234;SDS011;55052;52.056;5.296;2023-02-15T07:59:30;32.05;;;19.65;;
68234;SDS011;55052;52.056;5.296;2023-02-15T08:01:57;35.05;;;18.13;;
68234;SDS011;55052;52.056;5.296;2023-02-15T08:04:24;34.78;;;17.63;;
68234;SDS011;55052;52.056;5.296;2023-02-15T08:06:54;37.63;;;19.38;;
68234;SDS011;55052;52.056;5.296;2023-02-15T08:09:21;36.60;;;21.00;;
68234;SDS011;55052;52.056;5.296;2023-02-15T08:11:48;36.08;;;19.42;;
68234;SDS011;55052;52.056;5.296;2023-02-15T08:14:16;34.42;;;19.42;;
68234;SDS011;55052;52.056;5.296;2023-02-15T08:19:17;39.45;;;19.70;;
68234;SDS011;55052;52.056;5.296;2023-02-15T08:21:46;42.60;;;20.30;;
68234;SDS011;55052;52.056;5.296;2023-02-15T08:24:16;35.95;;;19.90;;
68234;SDS011;55052;52.056;5.296;2023-02-15T08:26:45;37.25;;;20.02;;
68234;SDS011;55052;52.056;5.296;2023-02-15T08:29:16;36.47;;;20.15;;
68234;SDS011;55052;52.056;5.296;2023-02-15T08:31:45;37.28;;;19.17;;
68234;SDS011;55052;52.056;5.296;2023-02-15T08:34:17;34.55;;;18.75;;
68234;SDS011;55052;52.056;5.296;2023-02-15T08:36:45;40.15;;;20.25;;
68234;SDS011;55052;52.056;5.296;2023-02-15T08:39:12;41.47;;;21.02;;
68234;SDS011;55052;52.056;5.296;2023-02-15T08:41:41;35.63;;;20.25;;
68234;SDS011;55052;52.056;5.296;2023-02-15T08:44:10;41.65;;;22.17;;
68234;SDS011;55052;52.056;5.296;2023-02-15T08:46:40;40.95;;;20.17;;
68234;SDS011;55052;52.056;5.296;2023-02-15T08:49:09;39.10;;;20.70;;
68234;SDS011;55052;52.056;5.296;2023-02-15T08:51:38;42.13;;;21.27;;
68234;SDS011;55052;52.056;5.296;2023-02-15T08:54:06;38.92;;;20.27;;
68234;SDS011;55052;52.056;5.296;2023-02-15T08:56:36;40.47;;;22.42;;
68234;SDS011;55052;52.056;5.296;2023-02-15T08:59:04;38.22;;;20.75;;
68234;SDS011;55052;52.056;5.296;2023-02-15T09:01:34;42.97;;;21.92;;
68234;SDS011;55052;52.056;5.296;2023-02-15T09:04:02;43.92;;;21.08;;
68234;SDS011;55052;52.056;5.296;2023-02-15T09:06:31;40.28;;;20.58;;
68234;SDS011;55052;52.056;5.296;2023-02-15T09:08:58;39.45;;;21.92;;
68234;SDS011;55052;52.056;5.296;2023-02-15T09:11:26;35.70;;;21.70;;
68234;SDS011;55052;52.056;5.296;2023-02-15T09:16:23;38.95;;;21.48;;
68234;SDS011;55052;52.056;5.296;2023-02-15T09:18:51;42.50;;;22.77;;
68234;SDS011;55052;52.056;5.296;2023-02-15T09:21:20;43.78;;;22.67;;
68234;SDS011;55052;52.056;5.296;2023-02-15T09:23:49;37.53;;;21.75;;
68234;SDS011;55052;52.056;5.296;2023-02-15T09:26:17;39.97;;;22.25;;
68234;SDS011;55052;52.056;5.296;2023-02-15T09:28:46;38.83;;;21.42;;
68234;SDS011;55052;52.056;5.296;2023-02-15T09:31:15;41.15;;;21.80;;
68234;SDS011;55052;52.056;5.296;2023-02-15T09:33:45;45.28;;;23.35;;
68234;SDS011;55052;52.056;5.296;2023-02-15T09:36:14;42.45;;;22.80;;
68234;SDS011;55052;52.056;5.296;2023-02-15T09:38:41;43.22;;;23.02;;
68234;SDS011;55052;52.056;5.296;2023-02-15T09:44:00;39.75;;;23.10;;
68234;SDS011;55052;52.056;5.296;2023-02-15T09:55:00;44.20;;;22.92;;
68234;SDS011;55052;52.056;5.296;2023-02-15T10:03:42;45.30;;;23.25;;
68234;SDS011;55052;52.056;5.296;2023-02-15T10:09:17;43.92;;;25.15;;
68234;SDS011;55052;52.056;5.296;2023-02-15T10:13:01;43.15;;;24.73;;
68234;SDS011;55052;52.056;5.296;2023-02-15T10:26:11;41.20;;;22.73;;
68234;SDS011;55052;52.056;5.296;2023-02-15T10:28:56;45.78;;;24.13;;
68234;SDS011;55052;52.056;5.296;2023-02-15T10:34:22;44.72;;;24.83;;
68234;SDS011;55052;52.056;5.296;2023-02-15T10:43:17;44.35;;;24.08;;
68234;SDS011;55052;52.056;5.296;2023-02-15T10:48:37;40.22;;;23.80;;
68234;SDS011;55052;52.056;5.296;2023-02-15T10:51:33;45.25;;;25.30;;
68234;SDS011;55052;52.056;5.296;2023-02-15T10:57:34;43.05;;;23.95;;
68234;SDS011;55052;52.056;5.296;2023-02-15T11:00:08;47.15;;;24.25;;
68234;SDS011;55052;52.056;5.296;2023-02-15T11:08:33;42.22;;;24.92;;
68234;SDS011;55052;52.056;5.296;2023-02-15T11:11:09;43.17;;;24.60;;
68234;SDS011;55052;52.056;5.296;2023-02-15T11:13:47;43.20;;;25.55;;
68234;SDS011;55052;52.056;5.296;2023-02-15T11:16:18;42.15;;;25.48;;
68234;SDS011;55052;52.056;5.296;2023-02-15T11:21:26;43.17;;;24.88;;
68234;SDS011;55052;52.056;5.296;2023-02-15T11:24:10;45.42;;;24.00;;
68234;SDS011;55052;52.056;5.296;2023-02-15T11:26:46;40.40;;;25.02;;
68234;SDS011;55052;52.056;5.296;2023-02-15T11:29:31;42.67;;;24.80;;
68234;SDS011;55052;52.056;5.296;2023-02-15T11:32:18;42.08;;;24.63;;
68234;SDS011;55052;52.056;5.296;2023-02-15T11:38:06;42.15;;;22.85;;
68234;SDS011;55052;52.056;5.296;2023-02-15T11:40:51;41.53;;;23.23;;
68234;SDS011;55052;52.056;5.296;2023-02-15T11:46:31;43.67;;;24.35;;
68234;SDS011;55052;52.056;5.296;2023-02-15T11:48:58;46.03;;;25.95;;
68234;SDS011;55052;52.056;5.296;2023-02-15T11:51:25;48.85;;;25.83;;
68234;SDS011;55052;52.056;5.296;2023-02-15T11:53:54;44.35;;;25.27;;
68234;SDS011;55052;52.056;5.296;2023-02-15T11:56:23;48.65;;;25.75;;
68234;SDS011;55052;52.056;5.296;2023-02-15T11:59:02;47.20;;;26.27;;
68234;SDS011;55052;52.056;5.296;2023-02-15T12:01:45;44.40;;;24.88;;
68234;SDS011;55052;52.056;5.296;2023-02-15T12:04:19;47.30;;;24.45;;
68234;SDS011;55052;52.056;5.296;2023-02-15T12:06:53;42.78;;;24.55;;
68234;SDS011;55052;52.056;5.296;2023-02-15T12:12:28;43.20;;;24.42;;
68234;SDS011;55052;52.056;5.296;2023-02-15T12:15:00;44.05;;;23.70;;
68234;SDS011;55052;52.056;5.296;2023-02-15T12:17:33;48.30;;;25.58;;
68234;SDS011;55052;52.056;5.296;2023-02-15T12:20:38;44.53;;;25.08;;
68234;SDS011;55052;52.056;5.296;2023-02-15T12:23:14;46.63;;;24.95;;
68234;SDS011;55052;52.056;5.296;2023-02-15T12:25:42;44.00;;;24.42;;
68234;SDS011;55052;52.056;5.296;2023-02-15T12:30:57;44.60;;;24.85;;
68234;SDS011;55052;52.056;5.296;2023-02-15T12:33:34;43.35;;;25.05;;
68234;SDS011;55052;52.056;5.296;2023-02-15T12:36:11;43.47;;;24.33;;
68234;SDS011;55052;52.056;5.296;2023-02-15T12:38:43;46.10;;;24.70;;
68234;SDS011;55052;52.056;5.296;2023-02-15T12:44:28;46.45;;;25.42;;
68234;SDS011;55052;52.056;5.296;2023-02-15T12:50:03;46.13;;;24.10;;
68234;SDS011;55052;52.056;5.296;2023-02-15T12:52:47;43.53;;;24.55;;
68234;SDS011;55052;52.056;5.296;2023-02-15T12:55:26;46.78;;;24.65;;
68234;SDS011;55052;52.056;5.296;2023-02-15T13:00:42;48.33;;;25.33;;
68234;SDS011;55052;52.056;5.296;2023-02-15T13:03:15;46.90;;;25.00;;
68234;SDS011;55052;52.056;5.296;2023-02-15T13:05:44;47.45;;;26.33;;
68234;SDS011;55052;52.056;5.296;2023-02-15T13:10:52;41.95;;;26.27;;
68234;SDS011;55052;52.056;5.296;2023-02-15T13:13:29;47.80;;;26.77;;
68234;SDS011;55052;52.056;5.296;2023-02-15T13:16:06;46.05;;;27.08;;
68234;SDS011;55052;52.056;5.296;2023-02-15T13:18:38;48.55;;;26.70;;
68234;SDS011;55052;52.056;5.296;2023-02-15T13:23:44;64.20;;;29.38;;
68234;SDS011;55052;52.056;5.296;2023-02-15T13:26:15;49.85;;;28.58;;
68234;SDS011;55052;52.056;5.296;2023-02-15T13:28:49;48.72;;;26.67;;
68234;SDS011;55052;52.056;5.296;2023-02-15T13:31:23;48.25;;;27.25;;
68234;SDS011;55052;52.056;5.296;2023-02-15T13:33:58;48.00;;;26.55;;
68234;SDS011;55052;52.056;5.296;2023-02-15T13:36:41;54.58;;;27.52;;
68234;SDS011;55052;52.056;5.296;2023-02-15T13:42:29;43.53;;;25.50;;
68234;SDS011;55052;52.056;5.296;2023-02-15T14:04:50;49.35;;;25.33;;
68234;SDS011;55052;52.056;5.296;2023-02-15T14:07:18;47.88;;;26.20;;
68234;SDS011;55052;52.056;5.296;2023-02-15T14:13:11;48.65;;;27.00;;
68234;SDS011;55052;52.056;5.296;2023-02-15T14:18:41;52.57;;;27.83;;
68234;SDS011;55052;52.056;5.296;2023-02-15T14:21:27;45.10;;;26.73;;
68234;SDS011;55052;52.056;5.296;2023-02-15T14:26:35;46.55;;;26.42;;
68234;SDS011;55052;52.056;5.296;2023-02-15T14:29:07;39.92;;;25.15;;
68234;SDS011;55052;52.056;5.296;2023-02-15T14:31:55;44.00;;;26.90;;
68234;SDS011;55052;52.056;5.296;2023-02-15T14:34:37;46.58;;;26.33;;
68234;SDS011;55052;52.056;5.296;2023-02-15T14:37:09;45.97;;;25.45;;
68234;SDS011;55052;52.056;5.296;2023-02-15T14:42:47;46.70;;;26.30;;
68234;SDS011;55052;52.056;5.296;2023-02-15T14:45:28;47.47;;;26.48;;
68234;SDS011;55052;52.056;5.296;2023-02-15T14:48:11;44.45;;;26.08;;
68234;SDS011;55052;52.056;5.296;2023-02-15T14:50:47;46.38;;;25.65;;
68234;SDS011;55052;52.056;5.296;2023-02-15T15:01:31;44.03;;;27.05;;
68234;SDS011;55052;52.056;5.296;2023-02-15T15:04:02;44.45;;;25.25;;
68234;SDS011;55052;52.056;5.296;2023-02-15T15:06:42;48.63;;;26.75;;
68234;SDS011;55052;52.056;5.296;2023-02-15T15:09:20;47.92;;;27.08;;
68234;SDS011;55052;52.056;5.296;2023-02-15T15:11:54;45.05;;;26.30;;
68234;SDS011;55052;52.056;5.296;2023-02-15T15:14:39;43.78;;;25.85;;
68234;SDS011;55052;52.056;5.296;2023-02-15T15:17:10;45.47;;;25.80;;
68234;SDS011;55052;52.056;5.296;2023-02-15T15:24:49;47.30;;;26.50;;
68234;SDS011;55052;52.056;5.296;2023-02-15T15:47:04;45.97;;;26.27;;
68234;SDS011;55052;52.056;5.296;2023-02-15T15:49:36;44.90;;;25.25;;
68234;SDS011;55052;52.056;5.296;2023-02-15T15:52:18;47.47;;;26.00;;
68234;SDS011;55052;52.056;5.296;2023-02-15T15:54:47;47.33;;;26.42;;
68234;SDS011;55052;52.056;5.296;2023-02-15T15:57:20;45.38;;;25.70;;
68234;SDS011;55052;52.056;5.296;2023-02-15T15:59:49;43.05;;;26.13;;
68234;SDS011;55052;52.056;5.296;2023-02-15T16:02:16;47.08;;;27.80;;
68234;SDS011;55052;52.056;5.296;2023-02-15T16:04:44;46.05;;;27.45;;
68234;SDS011;55052;52.056;5.296;2023-02-15T16:12:22;47.25;;;26.20;;
68234;SDS011;55052;52.056;5.296;2023-02-15T16:14:50;43.47;;;24.75;;
68234;SDS011;55052;52.056;5.296;2023-02-15T16:17:20;48.17;;;27.48;;
68234;SDS011;55052;52.056;5.296;2023-02-15T16:19:50;44.30;;;28.05;;
68234;SDS011;55052;52.056;5.296;2023-02-15T16:22:23;41.80;;;26.25;;
68234;SDS011;55052;52.056;5.296;2023-02-15T16:30:17;44.85;;;26.80;;
68234;SDS011;55052;52.056;5.296;2023-02-15T16:35:34;47.20;;;26.20;;
68234;SDS011;55052;52.056;5.296;2023-02-15T16:38:02;49.33;;;27.95;;
68234;SDS011;55052;52.056;5.296;2023-02-15T16:40:45;45.05;;;27.52;;
68234;SDS011;55052;52.056;5.296;2023-02-15T16:43:20;43.17;;;26.40;;
68234;SDS011;55052;52.056;5.296;2023-02-15T16:45:53;45.72;;;27.02;;
68234;SDS011;55052;52.056;5.296;2023-02-15T16:48:34;49.28;;;27.52;;
68234;SDS011;55052;52.056;5.296;2023-02-15T16:51:07;46.38;;;26.88;;
68234;SDS011;55052;52.056;5.296;2023-02-15T16:53:35;47.47;;;27.25;;
68234;SDS011;55052;52.056;5.296;2023-02-15T16:56:04;47.63;;;27.40;;
68234;SDS011;55052;52.056;5.296;2023-02-15T16:58:38;47.92;;;28.00;;
68234;SDS011;55052;52.056;5.296;2023-02-15T17:01:10;48.95;;;27.55;;
68234;SDS011;55052;52.056;5.296;2023-02-15T17:03:39;46.63;;;26.90;;
68234;SDS011;55052;52.056;5.296;2023-02-15T17:08:53;42.85;;;25.05;;
68234;SDS011;55052;52.056;5.296;2023-02-15T17:11:34;41.53;;;24.90;;
68234;SDS011;55052;52.056;5.296;2023-02-15T17:16:36;43.53;;;25.02;;
68234;SDS011;55052;52.056;5.296;2023-02-15T17:22:15;48.63;;;26.55;;
68234;SDS011;55052;52.056;5.296;2023-02-15T17:24:45;49.15;;;27.52;;
68234;SDS011;55052;52.056;5.296;2023-02-15T17:27:16;44.85;;;26.30;;
68234;SDS011;55052;52.056;5.296;2023-02-15T17:29:48;49.35;;;27.55;;
68234;SDS011;55052;52.056;5.296;2023-02-15T17:32:19;43.70;;;25.50;;
68234;SDS011;55052;52.056;5.296;2023-02-15T17:34:50;46.13;;;26.45;;
68234;SDS011;55052;52.056;5.296;2023-02-15T17:39:56;44.65;;;26.73;;
68234;SDS011;55052;52.056;5.296;2023-02-15T17:42:24;45.55;;;25.88;;
68234;SDS011;55052;52.056;5.296;2023-02-15T17:44:51;46.28;;;26.65;;
68234;SDS011;55052;52.056;5.296;2023-02-15T17:47:22;44.88;;;26.48;;
68234;SDS011;55052;52.056;5.296;2023-02-15T17:49:52;46.75;;;25.67;;
68234;SDS011;55052;52.056;5.296;2023-02-15T17:52:19;43.08;;;26.27;;
68234;SDS011;55052;52.056;5.296;2023-02-15T17:54:46;48.97;;;26.20;;
68234;SDS011;55052;52.056;5.296;2023-02-15T17:57:32;46.20;;;24.95;;
68234;SDS011;55052;52.056;5.296;2023-02-15T17:59:58;46.60;;;25.50;;
68234;SDS011;55052;52.056;5.296;2023-02-15T18:02:44;47.72;;;26.13;;
68234;SDS011;55052;52.056;5.296;2023-02-15T18:05:30;43.90;;;26.40;;
68234;SDS011;55052;52.056;5.296;2023-02-15T18:08:17;45.03;;;25.90;;
68234;SDS011;55052;52.056;5.296;2023-02-15T18:11:07;44.33;;;25.45;;
68234;SDS011;55052;52.056;5.296;2023-02-15T18:13:54;43.42;;;25.77;;
68234;SDS011;55052;52.056;5.296;2023-02-15T18:16:24;44.55;;;24.92;;
68234;SDS011;55052;52.056;5.296;2023-02-15T18:18:53;42.70;;;26.00;;
68234;SDS011;55052;52.056;5.296;2023-02-15T18:21:20;44.47;;;25.50;;
68234;SDS011;55052;52.056;5.296;2023-02-15T18:23:48;42.75;;;24.05;;